sensor_id;sensor_type;location;lat;lon;timestamp;temperature;humidity
17565;DHT22;62994;52.126;5.596;2023-02-18T00:00:34;11.20;99.90
17565;DHT22;62994;52.126;5.596;2023-02-18T00:03:03;11.20;99.90
17565;DHT22;62994;52.126;5.596;2023-02-18T00:05:30;11.20;99.90
17565;DHT22;62994;52.126;5.596;2023-02-18T00:07:56;11.20;99.90
17565;DHT22;62994;52.126;5.596;2023-02-18T00:10:23;11.20;99.90
17565;DHT22;62994;52.126;5.596;2023-02-18T00:12:50;11.20;99.90
17565;DHT22;62994;52.126;5.596;2023-02-18T00:15:17;11.20;99.90
17565;DHT22;62994;52.126;5.596;2023-02-18T00:17:44;11.20;99.90
17565;DHT22;62994;52.126;5.596;2023-02-18T00:20:13;11.20;99.90
17565;DHT22;62994;52.126;5.596;2023-02-18T00:22:40;11.20;99.90
17565;DHT22;62994;52.126;5.596;2023-02-18T00:25:07;11.20;99.90
17565;DHT22;62994;52.126;5.596;2023-02-18T00:27:34;11.20;99.90
17565;DHT22;62994;52.126;5.596;2023-02-18T00:30:07;11.20;99.90
17565;DHT22;62994;52.126;5.596;2023-02-18T00:32:34;11.20;99.90
17565;DHT22;62994;52.126;5.596;2023-02-18T00:35:06;11.20;99.90
17565;DHT22;62994;52.126;5.596;2023-02-18T00:37:36;11.20;99.90
17565;DHT22;62994;52.126;5.596;2023-02-18T00:40:04;11.20;99.90
17565;DHT22;62994;52.126;5.596;2023-02-18T00:42:36;11.20;99.90
17565;DHT22;62994;52.126;5.596;2023-02-18T00:45:03;11.10;99.90
17565;DHT22;62994;52.126;5.596;2023-02-18T00:47:30;11.10;99.90
17565;DHT22;62994;52.126;5.596;2023-02-18T00:49:58;11.10;99.90
17565;DHT22;62994;52.126;5.596;2023-02-18T00:52:24;11.20;99.90
17565;DHT22;62994;52.126;5.596;2023-02-18T00:54:53;11.20;99.90
17565;DHT22;62994;52.126;5.596;2023-02-18T00:57:22;11.20;99.90
17565;DHT22;62994;52.126;5.596;2023-02-18T00:59:50;11.20;99.90
17565;DHT22;62994;52.126;5.596;2023-02-18T01:02:17;11.20;99.90
17565;DHT22;62994;52.126;5.596;2023-02-18T01:04:43;11.20;99.90
17565;DHT22;62994;52.126;5.596;2023-02-18T01:07:10;11.20;99.90
17565;DHT22;62994;52.126;5.596;2023-02-18T01:09:37;11.20;99.90
17565;DHT22;62994;52.126;5.596;2023-02-18T01:12:06;11.20;99.90
17565;DHT22;62994;52.126;5.596;2023-02-18T01:14:33;11.10;99.90
17565;DHT22;62994;52.126;5.596;2023-02-18T01:17:00;11.10;99.90
17565;DHT22;62994;52.126;5.596;2023-02-18T01:19:27;11.10;99.90
17565;DHT22;62994;52.126;5.596;2023-02-18T01:21:54;11.10;99.90
17565;DHT22;62994;52.126;5.596;2023-02-18T01:24:21;11.10;99.90
17565;DHT22;62994;52.126;5.596;2023-02-18T01:26:48;11.10;99.90
17565;DHT22;62994;52.126;5.596;2023-02-18T01:29:16;11.10;99.90
17565;DHT22;62994;52.126;5.596;2023-02-18T01:31:43;11.10;99.90
17565;DHT22;62994;52.126;5.596;2023-02-18T01:34:10;11.10;99.90
17565;DHT22;62994;52.126;5.596;2023-02-18T01:36:40;11.10;99.90
17565;DHT22;62994;52.126;5.596;2023-02-18T01:39:07;11.00;99.90
17565;DHT22;62994;52.126;5.596;2023-02-18T01:41:33;11.00;99.90
17565;DHT22;62994;52.126;5.596;2023-02-18T01:44:11;11.00;99.90
17565;DHT22;62994;52.126;5.596;2023-02-18T01:46:40;11.00;99.90
17565;DHT22;62994;52.126;5.596;2023-02-18T01:49:07;10.90;99.90
17565;DHT22;62994;52.126;5.596;2023-02-18T01:51:38;10.90;99.90
17565;DHT22;62994;52.126;5.596;2023-02-18T01:54:09;10.90;99.90
17565;DHT22;62994;52.126;5.596;2023-02-18T01:56:40;10.80;99.90
17565;DHT22;62994;52.126;5.596;2023-02-18T01:59:10;10.90;99.90
17565;DHT22;62994;52.126;5.596;2023-02-18T02:01:42;10.90;99.90
17565;DHT22;62994;52.126;5.596;2023-02-18T02:04:13;10.80;99.90
17565;DHT22;62994;52.126;5.596;2023-02-18T02:06:40;10.80;99.90
17565;DHT22;62994;52.126;5.596;2023-02-18T02:09:11;10.80;99.90
17565;DHT22;62994;52.126;5.596;2023-02-18T02:12:06;10.80;99.90
17565;DHT22;62994;52.126;5.596;2023-02-18T02:15:02;10.80;99.90
17565;DHT22;62994;52.126;5.596;2023-02-18T02:17:44;10.80;99.90
17565;DHT22;62994;52.126;5.596;2023-02-18T02:23:30;10.80;99.90
17565;DHT22;62994;52.126;5.596;2023-02-18T02:32:46;10.80;99.90
17565;DHT22;62994;52.126;5.596;2023-02-18T02:35:22;10.70;99.90
17565;DHT22;62994;52.126;5.596;2023-02-18T02:37:55;10.70;99.90
17565;DHT22;62994;52.126;5.596;2023-02-18T02:40:30;10.70;99.90
17565;DHT22;62994;52.126;5.596;2023-02-18T02:43:08;10.70;99.90
17565;DHT22;62994;52.126;5.596;2023-02-18T02:45:45;10.70;99.90
17565;DHT22;62994;52.126;5.596;2023-02-18T02:48:22;10.70;99.90
17565;DHT22;62994;52.126;5.596;2023-02-18T02:50:54;10.70;99.90
17565;DHT22;62994;52.126;5.596;2023-02-18T02:53:27;10.70;99.90
17565;DHT22;62994;52.126;5.596;2023-02-18T02:55:55;10.70;99.90
17565;DHT22;62994;52.126;5.596;2023-02-18T02:58:22;10.80;99.90
17565;DHT22;62994;52.126;5.596;2023-02-18T03:01:00;10.80;99.90
17565;DHT22;62994;52.126;5.596;2023-02-18T03:03:48;10.80;99.90
17565;DHT22;62994;52.126;5.596;2023-02-18T03:06:32;10.80;99.90
17565;DHT22;62994;52.126;5.596;2023-02-18T03:09:08;10.80;99.90
17565;DHT22;62994;52.126;5.596;2023-02-18T03:11:46;10.80;99.90
17565;DHT22;62994;52.126;5.596;2023-02-18T03:14:21;10.80;99.90
17565;DHT22;62994;52.126;5.596;2023-02-18T03:17:00;10.80;99.90
17565;DHT22;62994;52.126;5.596;2023-02-18T03:19:32;10.80;99.90
17565;DHT22;62994;52.126;5.596;2023-02-18T03:22:05;10.90;99.90
17565;DHT22;62994;52.126;5.596;2023-02-18T03:24:36;10.80;99.90
17565;DHT22;62994;52.126;5.596;2023-02-18T03:27:07;10.90;99.90
17565;DHT22;62994;52.126;5.596;2023-02-18T03:29:36;10.90;99.90
17565;DHT22;62994;52.126;5.596;2023-02-18T03:32:06;10.90;99.90
17565;DHT22;62994;52.126;5.596;2023-02-18T03:34:37;10.90;99.90
17565;DHT22;62994;52.126;5.596;2023-02-18T03:37:11;11.00;99.90
17565;DHT22;62994;52.126;5.596;2023-02-18T03:39:43;11.00;99.90
17565;DHT22;62994;52.126;5.596;2023-02-18T03:42:11;11.10;99.90
17565;DHT22;62994;52.126;5.596;2023-02-18T03:44:38;11.00;99.90
17565;DHT22;62994;52.126;5.596;2023-02-18T03:47:05;11.00;99.90
17565;DHT22;62994;52.126;5.596;2023-02-18T03:49:32;11.00;99.90
17565;DHT22;62994;52.126;5.596;2023-02-18T03:51:59;11.00;99.90
17565;DHT22;62994;52.126;5.596;2023-02-18T03:54:27;11.00;99.90
17565;DHT22;62994;52.126;5.596;2023-02-18T03:56:54;11.00;99.90
17565;DHT22;62994;52.126;5.596;2023-02-18T03:59:21;11.00;99.90
17565;DHT22;62994;52.126;5.596;2023-02-18T04:01:56;11.00;99.90
17565;DHT22;62994;52.126;5.596;2023-02-18T04:04:23;11.00;99.90
17565;DHT22;62994;52.126;5.596;2023-02-18T04:06:52;11.00;99.90
17565;DHT22;62994;52.126;5.596;2023-02-18T04:09:19;11.00;99.90
17565;DHT22;62994;52.126;5.596;2023-02-18T04:11:47;11.00;99.90
17565;DHT22;62994;52.126;5.596;2023-02-18T04:14:14;11.00;99.90
17565;DHT22;62994;52.126;5.596;2023-02-18T04:16:41;11.10;99.90
17565;DHT22;62994;52.126;5.596;2023-02-18T04:19:08;11.10;99.90
17565;DHT22;62994;52.126;5.596;2023-02-18T04:21:35;11.10;99.90
17565;DHT22;62994;52.126;5.596;2023-02-18T04:24:03;11.10;99.90
17565;DHT22;62994;52.126;5.596;2023-02-18T04:26:30;11.20;99.90
17565;DHT22;62994;52.126;5.596;2023-02-18T04:29:01;11.20;99.90
17565;DHT22;62994;52.126;5.596;2023-02-18T04:31:28;11.10;99.90
17565;DHT22;62994;52.126;5.596;2023-02-18T04:33:55;11.10;99.90
17565;DHT22;62994;52.126;5.596;2023-02-18T04:36:22;11.10;99.90
17565;DHT22;62994;52.126;5.596;2023-02-18T04:38:49;11.10;99.90
17565;DHT22;62994;52.126;5.596;2023-02-18T04:41:18;11.10;99.90
17565;DHT22;62994;52.126;5.596;2023-02-18T04:43:45;11.20;99.90
17565;DHT22;62994;52.126;5.596;2023-02-18T04:46:13;11.10;99.90
17565;DHT22;62994;52.126;5.596;2023-02-18T04:48:40;11.10;99.90
17565;DHT22;62994;52.126;5.596;2023-02-18T04:51:07;11.10;99.90
17565;DHT22;62994;52.126;5.596;2023-02-18T04:53:34;11.10;99.90
17565;DHT22;62994;52.126;5.596;2023-02-18T04:56:03;11.10;99.90
17565;DHT22;62994;52.126;5.596;2023-02-18T04:58:30;11.10;99.90
17565;DHT22;62994;52.126;5.596;2023-02-18T05:00:58;11.10;99.90
17565;DHT22;62994;52.126;5.596;2023-02-18T05:03:32;11.20;99.90
17565;DHT22;62994;52.126;5.596;2023-02-18T05:06:10;11.20;99.90
17565;DHT22;62994;52.126;5.596;2023-02-18T05:08:37;11.20;99.90
17565;DHT22;62994;52.126;5.596;2023-02-18T05:11:05;11.10;99.90
17565;DHT22;62994;52.126;5.596;2023-02-18T05:13:33;11.10;99.90
17565;DHT22;62994;52.126;5.596;2023-02-18T05:16:00;11.10;99.90
17565;DHT22;62994;52.126;5.596;2023-02-18T05:18:27;11.10;99.90
17565;DHT22;62994;52.126;5.596;2023-02-18T05:21:01;11.10;99.90
17565;DHT22;62994;52.126;5.596;2023-02-18T05:23:29;11.10;99.90
17565;DHT22;62994;52.126;5.596;2023-02-18T05:25:56;11.10;99.90
17565;DHT22;62994;52.126;5.596;2023-02-18T05:28:24;11.10;99.90
17565;DHT22;62994;52.126;5.596;2023-02-18T05:30:51;11.10;99.90
17565;DHT22;62994;52.126;5.596;2023-02-18T05:33:19;11.00;99.90
17565;DHT22;62994;52.126;5.596;2023-02-18T05:35:47;11.00;99.90
17565;DHT22;62994;52.126;5.596;2023-02-18T05:38:15;11.10;99.90
17565;DHT22;62994;52.126;5.596;2023-02-18T05:40:42;11.00;99.90
17565;DHT22;62994;52.126;5.596;2023-02-18T05:43:11;11.00;99.90
17565;DHT22;62994;52.126;5.596;2023-02-18T05:45:38;11.00;99.90
17565;DHT22;62994;52.126;5.596;2023-02-18T05:48:05;11.00;99.90
17565;DHT22;62994;52.126;5.596;2023-02-18T05:50:32;11.00;99.90
17565;DHT22;62994;52.126;5.596;2023-02-18T05:53:04;11.00;99.90
17565;DHT22;62994;52.126;5.596;2023-02-18T05:55:33;11.00;99.90
17565;DHT22;62994;52.126;5.596;2023-02-18T05:58:03;11.10;99.90
17565;DHT22;62994;52.126;5.596;2023-02-18T06:00:31;11.00;99.90
17565;DHT22;62994;52.126;5.596;2023-02-18T06:02:58;11.00;99.90
17565;DHT22;62994;52.126;5.596;2023-02-18T06:05:25;11.00;99.90
17565;DHT22;62994;52.126;5.596;2023-02-18T06:07:52;11.00;99.90
17565;DHT22;62994;52.126;5.596;2023-02-18T06:10:23;11.10;99.90
17565;DHT22;62994;52.126;5.596;2023-02-18T06:12:54;11.10;99.90
17565;DHT22;62994;52.126;5.596;2023-02-18T06:15:21;11.00;99.90
17565;DHT22;62994;52.126;5.596;2023-02-18T06:17:48;11.00;99.90
17565;DHT22;62994;52.126;5.596;2023-02-18T06:20:15;11.00;99.90
17565;DHT22;62994;52.126;5.596;2023-02-18T06:22:42;11.10;99.90
17565;DHT22;62994;52.126;5.596;2023-02-18T06:25:09;11.00;99.90
17565;DHT22;62994;52.126;5.596;2023-02-18T06:27:36;11.00;99.90
17565;DHT22;62994;52.126;5.596;2023-02-18T06:30:06;11.10;99.90
17565;DHT22;62994;52.126;5.596;2023-02-18T06:32:36;11.10;99.90
17565;DHT22;62994;52.126;5.596;2023-02-18T06:35:03;11.10;99.90
17565;DHT22;62994;52.126;5.596;2023-02-18T06:37:30;11.20;99.90
17565;DHT22;62994;52.126;5.596;2023-02-18T06:39:59;11.30;99.90
17565;DHT22;62994;52.126;5.596;2023-02-18T06:42:26;11.30;99.90
17565;DHT22;62994;52.126;5.596;2023-02-18T06:44:53;11.30;99.90
17565;DHT22;62994;52.126;5.596;2023-02-18T06:47:21;11.20;99.90
17565;DHT22;62994;52.126;5.596;2023-02-18T06:49:48;11.20;99.90
17565;DHT22;62994;52.126;5.596;2023-02-18T06:52:15;11.20;99.90
17565;DHT22;62994;52.126;5.596;2023-02-18T06:54:42;11.20;99.90
17565;DHT22;62994;52.126;5.596;2023-02-18T06:57:09;11.10;99.90
17565;DHT22;62994;52.126;5.596;2023-02-18T06:59:36;11.20;99.90
17565;DHT22;62994;52.126;5.596;2023-02-18T07:02:03;11.10;99.90
17565;DHT22;62994;52.126;5.596;2023-02-18T07:04:31;11.20;99.90
17565;DHT22;62994;52.126;5.596;2023-02-18T07:06:58;11.20;99.90
17565;DHT22;62994;52.126;5.596;2023-02-18T07:09:25;11.20;99.90
17565;DHT22;62994;52.126;5.596;2023-02-18T07:11:52;11.10;99.90
17565;DHT22;62994;52.126;5.596;2023-02-18T07:14:19;11.10;99.90
17565;DHT22;62994;52.126;5.596;2023-02-18T07:16:46;11.10;99.90
17565;DHT22;62994;52.126;5.596;2023-02-18T07:19:13;11.10;99.90
17565;DHT22;62994;52.126;5.596;2023-02-18T07:21:41;11.10;99.90
17565;DHT22;62994;52.126;5.596;2023-02-18T07:24:08;11.10;99.90
17565;DHT22;62994;52.126;5.596;2023-02-18T07:26:35;11.00;99.90
17565;DHT22;62994;52.126;5.596;2023-02-18T07:29:02;11.10;99.90
17565;DHT22;62994;52.126;5.596;2023-02-18T07:31:29;11.00;99.90
17565;DHT22;62994;52.126;5.596;2023-02-18T07:33:56;11.00;99.90
17565;DHT22;62994;52.126;5.596;2023-02-18T07:36:29;11.10;99.90
17565;DHT22;62994;52.126;5.596;2023-02-18T07:39:01;11.10;99.90
17565;DHT22;62994;52.126;5.596;2023-02-18T07:41:28;11.10;99.90
17565;DHT22;62994;52.126;5.596;2023-02-18T07:43:56;11.10;99.90
17565;DHT22;62994;52.126;5.596;2023-02-18T07:46:23;11.10;99.90
17565;DHT22;62994;52.126;5.596;2023-02-18T07:48:50;11.00;99.90
17565;DHT22;62994;52.126;5.596;2023-02-18T07:51:22;11.10;99.90
17565;DHT22;62994;52.126;5.596;2023-02-18T07:53:49;11.00;99.90
17565;DHT22;62994;52.126;5.596;2023-02-18T07:56:17;11.00;99.90
17565;DHT22;62994;52.126;5.596;2023-02-18T07:58:44;11.00;99.90
17565;DHT22;62994;52.126;5.596;2023-02-18T08:01:13;11.00;99.90
17565;DHT22;62994;52.126;5.596;2023-02-18T08:03:40;11.00;99.90
17565;DHT22;62994;52.126;5.596;2023-02-18T08:06:12;11.00;99.90
17565;DHT22;62994;52.126;5.596;2023-02-18T08:08:41;11.00;99.90
17565;DHT22;62994;52.126;5.596;2023-02-18T08:11:08;11.00;99.90
17565;DHT22;62994;52.126;5.596;2023-02-18T08:13:36;11.00;99.90
17565;DHT22;62994;52.126;5.596;2023-02-18T08:16:04;11.00;99.90
17565;DHT22;62994;52.126;5.596;2023-02-18T08:18:32;11.00;99.90
17565;DHT22;62994;52.126;5.596;2023-02-18T08:21:05;11.00;99.90
17565;DHT22;62994;52.126;5.596;2023-02-18T08:23:32;11.00;99.90
17565;DHT22;62994;52.126;5.596;2023-02-18T08:26:04;11.00;99.90
17565;DHT22;62994;52.126;5.596;2023-02-18T08:28:31;11.00;99.90
17565;DHT22;62994;52.126;5.596;2023-02-18T08:30:59;11.00;99.90
17565;DHT22;62994;52.126;5.596;2023-02-18T08:33:27;10.90;99.90
17565;DHT22;62994;52.126;5.596;2023-02-18T08:35:54;10.90;99.90
17565;DHT22;62994;52.126;5.596;2023-02-18T08:38:23;10.90;99.90
17565;DHT22;62994;52.126;5.596;2023-02-18T08:40:59;10.90;99.90
17565;DHT22;62994;52.126;5.596;2023-02-18T08:43:26;10.90;99.90
17565;DHT22;62994;52.126;5.596;2023-02-18T08:45:53;10.90;99.90
17565;DHT22;62994;52.126;5.596;2023-02-18T08:48:21;10.90;99.90
17565;DHT22;62994;52.126;5.596;2023-02-18T08:50:48;10.90;99.90
17565;DHT22;62994;52.126;5.596;2023-02-18T08:53:15;10.90;99.90
17565;DHT22;62994;52.126;5.596;2023-02-18T08:55:43;10.90;99.90
17565;DHT22;62994;52.126;5.596;2023-02-18T08:58:15;10.90;99.90
17565;DHT22;62994;52.126;5.596;2023-02-18T09:00:43;10.90;99.90
17565;DHT22;62994;52.126;5.596;2023-02-18T09:03:12;10.80;99.90
17565;DHT22;62994;52.126;5.596;2023-02-18T09:05:40;10.80;99.90
17565;DHT22;62994;52.126;5.596;2023-02-18T09:08:07;10.80;99.90
17565;DHT22;62994;52.126;5.596;2023-02-18T09:10:34;10.80;99.90
17565;DHT22;62994;52.126;5.596;2023-02-18T09:13:01;10.80;99.90
17565;DHT22;62994;52.126;5.596;2023-02-18T09:15:28;10.80;99.90
17565;DHT22;62994;52.126;5.596;2023-02-18T09:17:56;10.80;99.90
17565;DHT22;62994;52.126;5.596;2023-02-18T09:20:24;10.80;99.90
17565;DHT22;62994;52.126;5.596;2023-02-18T09:22:52;10.80;99.90
17565;DHT22;62994;52.126;5.596;2023-02-18T09:25:19;10.80;99.90
17565;DHT22;62994;52.126;5.596;2023-02-18T09:27:46;10.80;99.90
17565;DHT22;62994;52.126;5.596;2023-02-18T09:30:13;10.90;99.90
17565;DHT22;62994;52.126;5.596;2023-02-18T09:32:40;10.90;99.90
17565;DHT22;62994;52.126;5.596;2023-02-18T09:35:08;10.90;99.90
17565;DHT22;62994;52.126;5.596;2023-02-18T09:37:37;10.90;99.90
17565;DHT22;62994;52.126;5.596;2023-02-18T09:40:07;10.80;99.90
17565;DHT22;62994;52.126;5.596;2023-02-18T09:42:34;10.80;99.90
17565;DHT22;62994;52.126;5.596;2023-02-18T09:45:03;10.80;99.90
17565;DHT22;62994;52.126;5.596;2023-02-18T09:47:33;10.80;99.90
17565;DHT22;62994;52.126;5.596;2023-02-18T09:50:06;10.80;99.90
17565;DHT22;62994;52.126;5.596;2023-02-18T09:52:37;10.90;99.90
17565;DHT22;62994;52.126;5.596;2023-02-18T09:55:21;10.80;99.90
17565;DHT22;62994;52.126;5.596;2023-02-18T09:57:50;10.80;99.90
17565;DHT22;62994;52.126;5.596;2023-02-18T10:00:20;10.90;99.90
17565;DHT22;62994;52.126;5.596;2023-02-18T10:02:54;10.90;99.90
17565;DHT22;62994;52.126;5.596;2023-02-18T10:05:23;10.90;99.90
17565;DHT22;62994;52.126;5.596;2023-02-18T10:07:53;10.90;99.90
17565;DHT22;62994;52.126;5.596;2023-02-18T10:10:35;10.80;99.90
17565;DHT22;62994;52.126;5.596;2023-02-18T10:13:11;10.90;99.90
17565;DHT22;62994;52.126;5.596;2023-02-18T10:15:40;10.90;99.90
17565;DHT22;62994;52.126;5.596;2023-02-18T10:18:20;10.90;99.90
17565;DHT22;62994;52.126;5.596;2023-02-18T10:20:49;10.90;99.90
17565;DHT22;62994;52.126;5.596;2023-02-18T10:23:19;10.90;99.90
17565;DHT22;62994;52.126;5.596;2023-02-18T10:25:48;10.90;99.90
17565;DHT22;62994;52.126;5.596;2023-02-18T10:28:18;10.90;99.90
17565;DHT22;62994;52.126;5.596;2023-02-18T10:30:51;10.90;99.90
17565;DHT22;62994;52.126;5.596;2023-02-18T10:33:30;11.00;99.90
17565;DHT22;62994;52.126;5.596;2023-02-18T10:36:07;11.00;99.90
17565;DHT22;62994;52.126;5.596;2023-02-18T10:38:42;11.00;99.90
17565;DHT22;62994;52.126;5.596;2023-02-18T10:41:17;11.00;99.90
17565;DHT22;62994;52.126;5.596;2023-02-18T10:43:51;11.10;99.90
17565;DHT22;62994;52.126;5.596;2023-02-18T10:46:24;11.10;99.90
17565;DHT22;62994;52.126;5.596;2023-02-18T10:49:09;11.10;99.90
17565;DHT22;62994;52.126;5.596;2023-02-18T10:51:47;11.10;99.90
17565;DHT22;62994;52.126;5.596;2023-02-18T10:54:18;11.20;99.90
17565;DHT22;62994;52.126;5.596;2023-02-18T10:56:51;11.20;99.90
17565;DHT22;62994;52.126;5.596;2023-02-18T10:59:20;11.20;99.90
17565;DHT22;62994;52.126;5.596;2023-02-18T11:01:54;11.20;99.90
17565;DHT22;62994;52.126;5.596;2023-02-18T11:04:25;11.30;99.90
17565;DHT22;62994;52.126;5.596;2023-02-18T11:06:53;11.40;99.90
17565;DHT22;62994;52.126;5.596;2023-02-18T11:09:33;11.40;99.90
17565;DHT22;62994;52.126;5.596;2023-02-18T11:12:13;11.50;99.90
17565;DHT22;62994;52.126;5.596;2023-02-18T11:14:42;11.50;99.90
17565;DHT22;62994;52.126;5.596;2023-02-18T11:17:19;11.60;99.90
17565;DHT22;62994;52.126;5.596;2023-02-18T11:19:54;11.60;99.90
17565;DHT22;62994;52.126;5.596;2023-02-18T11:22:24;11.70;99.90
17565;DHT22;62994;52.126;5.596;2023-02-18T11:24:53;11.70;99.90
17565;DHT22;62994;52.126;5.596;2023-02-18T11:27:25;11.70;99.90
17565;DHT22;62994;52.126;5.596;2023-02-18T11:29:59;11.80;99.90
17565;DHT22;62994;52.126;5.596;2023-02-18T11:32:28;11.80;99.90
17565;DHT22;62994;52.126;5.596;2023-02-18T11:34:56;11.90;99.90
17565;DHT22;62994;52.126;5.596;2023-02-18T11:37:23;11.90;99.90
17565;DHT22;62994;52.126;5.596;2023-02-18T11:39:53;11.90;99.90
17565;DHT22;62994;52.126;5.596;2023-02-18T11:42:26;11.90;99.90
17565;DHT22;62994;52.126;5.596;2023-02-18T11:44:54;11.90;99.90
17565;DHT22;62994;52.126;5.596;2023-02-18T11:47:26;12.00;99.90
17565;DHT22;62994;52.126;5.596;2023-02-18T11:50:19;12.00;99.90
17565;DHT22;62994;52.126;5.596;2023-02-18T11:52:48;12.00;99.90
17565;DHT22;62994;52.126;5.596;2023-02-18T11:55:18;12.00;99.90
17565;DHT22;62994;52.126;5.596;2023-02-18T11:57:49;12.00;99.90
17565;DHT22;62994;52.126;5.596;2023-02-18T12:00:23;12.00;99.90
17565;DHT22;62994;52.126;5.596;2023-02-18T12:02:54;12.00;99.90
17565;DHT22;62994;52.126;5.596;2023-02-18T12:05:24;12.00;99.90
17565;DHT22;62994;52.126;5.596;2023-02-18T12:07:56;12.00;99.90
17565;DHT22;62994;52.126;5.596;2023-02-18T12:10:27;12.00;99.90
17565;DHT22;62994;52.126;5.596;2023-02-18T12:13:00;12.00;99.90
17565;DHT22;62994;52.126;5.596;2023-02-18T12:15:36;11.90;99.90
17565;DHT22;62994;52.126;5.596;2023-02-18T12:18:26;12.00;99.90
17565;DHT22;62994;52.126;5.596;2023-02-18T12:21:21;12.00;99.90
17565;DHT22;62994;52.126;5.596;2023-02-18T12:24:03;12.00;99.90
17565;DHT22;62994;52.126;5.596;2023-02-18T12:26:43;12.00;99.90
17565;DHT22;62994;52.126;5.596;2023-02-18T12:29:42;12.00;99.90
17565;DHT22;62994;52.126;5.596;2023-02-18T12:38:54;12.00;99.90
17565;DHT22;62994;52.126;5.596;2023-02-18T12:41:59;12.00;99.90
17565;DHT22;62994;52.126;5.596;2023-02-18T12:50:37;12.00;99.90
17565;DHT22;62994;52.126;5.596;2023-02-18T12:56:12;12.10;99.90
17565;DHT22;62994;52.126;5.596;2023-02-18T12:58:52;12.10;99.90
17565;DHT22;62994;52.126;5.596;2023-02-18T13:01:29;12.10;99.90
17565;DHT22;62994;52.126;5.596;2023-02-18T13:04:12;12.10;99.90
17565;DHT22;62994;52.126;5.596;2023-02-18T13:06:58;12.20;99.90
17565;DHT22;62994;52.126;5.596;2023-02-18T13:09:38;12.20;99.90
17565;DHT22;62994;52.126;5.596;2023-02-18T13:12:16;12.30;99.90
17565;DHT22;62994;52.126;5.596;2023-02-18T13:14:50;12.30;99.90
17565;DHT22;62994;52.126;5.596;2023-02-18T13:17:27;12.40;99.90
17565;DHT22;62994;52.126;5.596;2023-02-18T13:19:59;12.40;99.90
17565;DHT22;62994;52.126;5.596;2023-02-18T13:22:34;12.40;99.90
17565;DHT22;62994;52.126;5.596;2023-02-18T13:25:02;12.40;99.90
17565;DHT22;62994;52.126;5.596;2023-02-18T13:27:40;12.40;99.90
17565;DHT22;62994;52.126;5.596;2023-02-18T13:30:20;12.50;99.90
17565;DHT22;62994;52.126;5.596;2023-02-18T13:33:07;12.50;99.90
17565;DHT22;62994;52.126;5.596;2023-02-18T13:35:39;12.50;99.90
17565;DHT22;62994;52.126;5.596;2023-02-18T13:41:09;12.50;99.90
17565;DHT22;62994;52.126;5.596;2023-02-18T13:43:36;12.50;99.90
17565;DHT22;62994;52.126;5.596;2023-02-18T13:46:08;12.50;99.90
17565;DHT22;62994;52.126;5.596;2023-02-18T13:48:42;12.50;99.90
17565;DHT22;62994;52.126;5.596;2023-02-18T13:51:12;12.50;99.90
17565;DHT22;62994;52.126;5.596;2023-02-18T13:53:43;12.50;99.90
17565;DHT22;62994;52.126;5.596;2023-02-18T13:56:21;12.50;99.90
17565;DHT22;62994;52.126;5.596;2023-02-18T13:58:50;12.50;99.90
17565;DHT22;62994;52.126;5.596;2023-02-18T14:01:24;12.50;99.90
17565;DHT22;62994;52.126;5.596;2023-02-18T14:03:59;12.60;99.90
17565;DHT22;62994;52.126;5.596;2023-02-18T14:06:30;12.70;99.90
17565;DHT22;62994;52.126;5.596;2023-02-18T14:09:38;12.70;99.90
17565;DHT22;62994;52.126;5.596;2023-02-18T14:12:36;12.70;99.90
17565;DHT22;62994;52.126;5.596;2023-02-18T14:18:20;12.70;99.90
17565;DHT22;62994;52.126;5.596;2023-02-18T14:20:49;12.70;99.90
17565;DHT22;62994;52.126;5.596;2023-02-18T14:23:59;12.70;99.90
17565;DHT22;62994;52.126;5.596;2023-02-18T14:26:30;12.70;99.90
17565;DHT22;62994;52.126;5.596;2023-02-18T14:29:02;12.70;99.90
17565;DHT22;62994;52.126;5.596;2023-02-18T14:31:50;12.70;99.90
17565;DHT22;62994;52.126;5.596;2023-02-18T14:37:43;12.70;99.90
17565;DHT22;62994;52.126;5.596;2023-02-18T14:40:24;12.70;99.90
17565;DHT22;62994;52.126;5.596;2023-02-18T14:43:01;12.70;99.90
17565;DHT22;62994;52.126;5.596;2023-02-18T14:45:53;12.70;99.90
17565;DHT22;62994;52.126;5.596;2023-02-18T14:51:21;12.80;99.90
17565;DHT22;62994;52.126;5.596;2023-02-18T14:53:50;12.80;99.90
17565;DHT22;62994;52.126;5.596;2023-02-18T14:56:18;12.80;99.90
17565;DHT22;62994;52.126;5.596;2023-02-18T14:58:51;12.80;99.90
17565;DHT22;62994;52.126;5.596;2023-02-18T15:01:22;12.80;99.90
17565;DHT22;62994;52.126;5.596;2023-02-18T15:03:52;12.80;99.90
17565;DHT22;62994;52.126;5.596;2023-02-18T15:06:28;12.90;99.90
17565;DHT22;62994;52.126;5.596;2023-02-18T15:08:56;12.90;99.90
17565;DHT22;62994;52.126;5.596;2023-02-18T15:11:26;12.90;99.90
17565;DHT22;62994;52.126;5.596;2023-02-18T15:13:58;12.90;99.90
17565;DHT22;62994;52.126;5.596;2023-02-18T15:16:29;12.90;99.90
17565;DHT22;62994;52.126;5.596;2023-02-18T15:18:59;12.90;99.90
17565;DHT22;62994;52.126;5.596;2023-02-18T15:21:29;12.90;99.90
17565;DHT22;62994;52.126;5.596;2023-02-18T15:24:03;12.90;99.90
17565;DHT22;62994;52.126;5.596;2023-02-18T15:26:31;12.90;99.90
17565;DHT22;62994;52.126;5.596;2023-02-18T15:29:01;12.90;99.90
17565;DHT22;62994;52.126;5.596;2023-02-18T15:31:30;12.90;99.90
17565;DHT22;62994;52.126;5.596;2023-02-18T15:33:57;12.90;99.90
17565;DHT22;62994;52.126;5.596;2023-02-18T15:36:25;12.90;99.90
17565;DHT22;62994;52.126;5.596;2023-02-18T15:38:52;12.90;99.90
17565;DHT22;62994;52.126;5.596;2023-02-18T15:41:21;12.90;99.90
17565;DHT22;62994;52.126;5.596;2023-02-18T15:43:53;12.90;99.90
17565;DHT22;62994;52.126;5.596;2023-02-18T15:46:23;12.90;99.90
17565;DHT22;62994;52.126;5.596;2023-02-18T15:48:51;12.90;99.90
17565;DHT22;62994;52.126;5.596;2023-02-18T15:51:21;13.00;99.90
17565;DHT22;62994;52.126;5.596;2023-02-18T15:53:50;12.90;99.90
17565;DHT22;62994;52.126;5.596;2023-02-18T15:56:23;13.00;99.90
17565;DHT22;62994;52.126;5.596;2023-02-18T15:59:06;13.00;99.90
17565;DHT22;62994;52.126;5.596;2023-02-18T16:01:35;13.00;99.90
17565;DHT22;62994;52.126;5.596;2023-02-18T16:04:05;13.00;99.90
17565;DHT22;62994;52.126;5.596;2023-02-18T16:06:36;12.90;99.90
17565;DHT22;62994;52.126;5.596;2023-02-18T16:09:11;12.90;99.90
17565;DHT22;62994;52.126;5.596;2023-02-18T16:11:41;12.90;99.90
17565;DHT22;62994;52.126;5.596;2023-02-18T16:14:25;12.90;99.90
17565;DHT22;62994;52.126;5.596;2023-02-18T16:17:14;12.90;99.90
17565;DHT22;62994;52.126;5.596;2023-02-18T16:19:48;12.80;99.90
17565;DHT22;62994;52.126;5.596;2023-02-18T16:22:30;12.80;99.90
17565;DHT22;62994;52.126;5.596;2023-02-18T16:25:00;12.80;99.90
17565;DHT22;62994;52.126;5.596;2023-02-18T16:27:34;12.80;99.90
17565;DHT22;62994;52.126;5.596;2023-02-18T16:30:13;12.80;99.90
17565;DHT22;62994;52.126;5.596;2023-02-18T16:32:43;12.70;99.90